createdAt,value
2018-02-23T00:00:21.118Z,38.00
2018-02-23T00:02:47.540Z,36.63
2018-02-23T00:05:13.968Z,38.30
2018-02-23T00:07:46.360Z,40.03
2018-02-23T00:10:13.577Z,37.07
2018-02-23T00:12:39.928Z,40.83
2018-02-23T00:15:06.311Z,38.05
2018-02-23T00:17:33.522Z,37.37
2018-02-23T00:20:00.122Z,42.95
2018-02-23T00:22:39.440Z,39.97
2018-02-23T00:25:05.729Z,39.00
2018-02-23T00:27:32.818Z,36.85
2018-02-23T00:29:59.169Z,37.25
2018-02-23T00:32:25.499Z,35.97
2018-02-23T00:34:51.905Z,37.95
2018-02-23T00:37:19.228Z,42.22
2018-02-23T00:39:45.618Z,39.70
2018-02-23T00:42:12.005Z,38.83
2018-02-23T00:44:38.371Z,38.78
2018-02-23T00:47:04.718Z,38.90
2018-02-23T00:49:31.061Z,37.75
2018-02-23T00:51:57.403Z,39.72
2018-02-23T00:54:23.777Z,37.15
2018-02-23T00:56:50.079Z,36.92
2018-02-23T00:59:16.462Z,37.90
2018-02-23T01:01:43.580Z,43.05
2018-02-23T01:04:10.008Z,42.10
2018-02-23T01:06:36.298Z,36.53
2018-02-23T01:09:02.693Z,35.60
2018-02-23T01:11:29.817Z,42.45
2018-02-23T01:13:56.162Z,33.92
2018-02-23T01:16:22.483Z,40.03
2018-02-23T01:18:48.792Z,40.83
2018-02-23T01:21:15.877Z,40.80
2018-02-23T01:23:42.230Z,35.13
2018-02-23T01:26:08.571Z,44.28
2018-02-23T01:28:34.914Z,38.42
2018-02-23T01:31:01.255Z,38.53
2018-02-23T01:33:27.600Z,40.70
2018-02-23T01:35:53.944Z,34.75
2018-02-23T01:38:20.282Z,35.90
2018-02-23T01:40:46.585Z,38.17
2018-02-23T01:43:12.876Z,38.50
2018-02-23T01:45:39.264Z,40.58
2018-02-23T01:48:05.589Z,42.35
2018-02-23T01:50:44.144Z,41.42
2018-02-23T01:53:10.471Z,35.10
2018-02-23T01:55:36.835Z,31.80
2018-02-23T01:58:03.129Z,41.35
2018-02-23T02:00:29.503Z,35.95
2018-02-23T02:02:56.146Z,37.85
2018-02-23T02:05:22.501Z,36.45
2018-02-23T02:07:48.837Z,32.38
2018-02-23T02:10:15.205Z,32.85
2018-02-23T02:12:41.509Z,34.90
2018-02-23T02:15:07.963Z,35.97
2018-02-23T02:17:34.318Z,33.95
2018-02-23T02:20:00.649Z,31.02
2018-02-23T02:22:27.037Z,33.65
2018-02-23T02:24:53.340Z,33.97
2018-02-23T02:27:19.685Z,35.30
2018-02-23T02:29:46.068Z,29.27
2018-02-23T02:32:12.363Z,31.62
2018-02-23T02:34:38.873Z,35.67
2018-02-23T02:37:05.210Z,30.92
2018-02-23T02:39:31.695Z,29.85
2018-02-23T02:41:58.847Z,32.08
2018-02-23T02:44:26.024Z,34.65
2018-02-23T02:46:53.101Z,34.15
2018-02-23T02:49:19.540Z,35.22
2018-02-23T02:51:45.951Z,34.20
2018-02-23T02:54:13.141Z,30.10
2018-02-23T02:56:39.520Z,32.83
2018-02-23T02:59:05.941Z,32.58
2018-02-23T03:01:33.079Z,30.95
2018-02-23T03:03:59.524Z,30.58
2018-02-23T03:06:25.930Z,30.80
2018-02-23T03:08:52.458Z,27.70
2018-02-23T03:11:18.883Z,35.25
2018-02-23T03:13:46.000Z,33.33
2018-02-23T03:16:12.420Z,37.10
2018-02-23T03:18:38.849Z,36.60
2018-02-23T03:21:05.929Z,32.78
2018-02-23T03:23:32.334Z,31.80
2018-02-23T03:25:58.806Z,29.85
2018-02-23T03:28:25.981Z,33.70
2018-02-23T03:30:52.448Z,30.75
2018-02-23T03:33:18.899Z,31.35
2018-02-23T03:35:45.280Z,31.85
2018-02-23T03:38:11.735Z,31.50
2018-02-23T03:40:38.146Z,30.70
2018-02-23T03:43:04.510Z,30.40
2018-02-23T03:45:30.845Z,34.65
2018-02-23T03:47:57.182Z,34.15
2018-02-23T03:50:23.581Z,30.92
2018-02-23T03:52:49.853Z,42.25
2018-02-23T03:55:16.177Z,31.85
2018-02-23T03:57:42.533Z,32.15
2018-02-23T04:00:08.943Z,36.00
2018-02-23T04:02:35.288Z,31.17
2018-02-23T04:05:01.680Z,33.15
2018-02-23T04:07:28.026Z,28.67
2018-02-23T04:09:54.317Z,26.45
2018-02-23T04:12:20.601Z,24.83
2018-02-23T04:14:47.637Z,28.15
2018-02-23T04:17:14.663Z,30.85
2018-02-23T04:19:40.982Z,25.50
2018-02-23T04:22:07.277Z,26.65
2018-02-23T04:24:33.614Z,24.23
2018-02-23T04:26:59.900Z,26.33
2018-02-23T04:29:26.196Z,26.15
2018-02-23T04:31:52.491Z,22.00
2018-02-23T04:34:18.771Z,24.58
2018-02-23T04:36:45.088Z,24.80
2018-02-23T04:39:11.381Z,25.67
2018-02-23T04:41:37.700Z,18.00
2018-02-23T04:44:03.973Z,22.30
2018-02-23T04:46:30.264Z,24.45
2018-02-23T04:48:56.555Z,23.08
2018-02-23T04:51:22.874Z,21.40
2018-02-23T04:53:49.198Z,23.17
2018-02-23T04:56:15.485Z,22.33
2018-02-23T04:58:41.835Z,27.10
2018-02-23T05:01:08.230Z,22.00
2018-02-23T05:03:34.547Z,21.00
2018-02-23T05:06:01.654Z,23.73
2018-02-23T05:08:27.953Z,23.10
2018-02-23T05:10:55.040Z,22.77
2018-02-23T05:13:21.397Z,24.58
2018-02-23T05:15:47.761Z,32.13
2018-02-23T05:18:14.918Z,27.42
2018-02-23T05:20:41.216Z,27.35
2018-02-23T05:23:07.574Z,27.92
2018-02-23T05:25:33.961Z,30.67
2018-02-23T05:28:00.482Z,32.08
2018-02-23T05:30:26.820Z,29.75
2018-02-23T05:32:53.395Z,27.90
2018-02-23T05:35:19.760Z,27.48
2018-02-23T05:37:46.046Z,26.77
2018-02-23T05:40:14.373Z,22.50
2018-02-23T05:42:40.689Z,30.75
2018-02-23T05:45:07.057Z,24.65
2018-02-23T05:47:33.375Z,24.75
2018-02-23T05:49:59.877Z,35.35
2018-02-23T05:52:26.257Z,27.65
2018-02-23T05:54:53.336Z,25.77
2018-02-23T05:57:19.609Z,29.30
2018-02-23T05:59:45.910Z,31.05
2018-02-23T06:02:13.034Z,29.37
2018-02-23T06:04:39.433Z,25.65
2018-02-23T06:07:05.768Z,27.95
2018-02-23T06:09:32.141Z,31.15
2018-02-23T06:11:58.425Z,26.05
2018-02-23T06:14:24.842Z,26.62
2018-02-23T06:16:51.969Z,27.35
2018-02-23T06:19:25.184Z,25.25
2018-02-23T06:21:51.757Z,28.02
2018-02-23T06:24:18.086Z,23.50
2018-02-23T06:26:44.409Z,23.70
2018-02-23T06:29:11.480Z,25.35
2018-02-23T06:31:37.883Z,24.50
2018-02-23T06:34:04.205Z,22.13
2018-02-23T06:36:30.521Z,23.67
2018-02-23T06:38:56.813Z,21.27
2018-02-23T06:41:23.873Z,16.90
2018-02-23T06:43:50.166Z,17.60
2018-02-23T06:46:16.509Z,18.05
2018-02-23T06:48:42.777Z,14.45
2018-02-23T06:51:09.063Z,17.85
2018-02-23T06:53:35.359Z,17.48
2018-02-23T06:56:01.644Z,23.77
2018-02-23T06:58:30.134Z,23.87
2018-02-23T07:00:56.548Z,12.05
2018-02-23T07:03:22.932Z,17.52
2018-02-23T07:05:49.233Z,16.15
2018-02-23T07:08:15.600Z,15.05
2018-02-23T07:10:41.916Z,12.50
2018-02-23T07:13:08.304Z,13.40
2018-02-23T07:15:34.700Z,15.20
2018-02-23T07:18:01.036Z,15.10
2018-02-23T07:20:27.428Z,16.33
2018-02-23T07:22:53.745Z,15.52
2018-02-23T07:25:20.112Z,18.27
2018-02-23T07:27:46.413Z,15.98
2018-02-23T07:30:12.781Z,16.05
2018-02-23T07:32:39.116Z,12.20
2018-02-23T07:35:05.580Z,16.73
2018-02-23T07:37:31.938Z,17.42
2018-02-23T07:39:58.275Z,10.95
2018-02-23T07:42:24.603Z,12.90
2018-02-23T07:44:51.348Z,18.10
2018-02-23T07:47:17.685Z,14.75
2018-02-23T07:49:44.050Z,12.93
2018-02-23T07:52:10.445Z,14.13
2018-02-23T07:54:36.735Z,16.00
2018-02-23T07:57:03.168Z,16.37
2018-02-23T07:59:29.752Z,14.02
2018-02-23T08:01:56.078Z,16.85
2018-02-23T08:04:22.416Z,17.87
2018-02-23T08:06:48.699Z,14.35
2018-02-23T08:09:15.007Z,15.75
2018-02-23T08:11:41.349Z,13.50
2018-02-23T08:14:07.702Z,17.23
2018-02-23T08:16:34.076Z,16.45
2018-02-23T08:19:00.575Z,14.30
2018-02-23T08:21:27.621Z,11.75
2018-02-23T08:23:54.731Z,17.98
2018-02-23T08:26:21.065Z,12.80
2018-02-23T08:29:02.321Z,11.63
2018-02-23T08:31:29.433Z,15.13
2018-02-23T08:33:56.070Z,13.13
2018-02-23T08:36:22.410Z,13.02
2018-02-23T08:38:48.776Z,13.85
2018-02-23T08:41:15.104Z,10.35
2018-02-23T08:43:41.512Z,17.02
2018-02-23T08:46:07.991Z,17.90
2018-02-23T08:48:35.080Z,15.65
2018-02-23T08:51:01.371Z,13.95
2018-02-23T08:53:27.761Z,13.95
2018-02-23T08:55:54.101Z,15.00
2018-02-23T08:58:20.381Z,14.00
2018-02-23T09:00:46.857Z,11.75
2018-02-23T09:03:13.976Z,21.25
2018-02-23T09:05:40.317Z,10.75
2018-02-23T09:08:06.643Z,13.35
2018-02-23T09:10:32.949Z,14.63
2018-02-23T09:12:59.344Z,17.80
2018-02-23T09:15:25.728Z,13.45
2018-02-23T09:17:52.104Z,15.55
2018-02-23T09:20:19.169Z,12.35
2018-02-23T09:22:46.281Z,18.02
2018-02-23T09:25:12.580Z,14.07
2018-02-23T09:27:38.952Z,12.52
2018-02-23T09:30:05.312Z,13.15
2018-02-23T09:32:33.560Z,12.98
2018-02-23T09:34:59.853Z,14.75
2018-02-23T09:37:26.173Z,10.20
2018-02-23T09:39:52.488Z,11.57
2018-02-23T09:42:18.869Z,10.02
2018-02-23T09:44:45.180Z,12.18
2018-02-23T09:47:11.624Z,10.60
2018-02-23T09:49:37.902Z,14.52
2018-02-23T09:52:04.248Z,11.23
2018-02-23T09:54:30.797Z,12.18
2018-02-23T09:56:57.131Z,12.85
2018-02-23T09:59:23.481Z,13.93
2018-02-23T10:01:49.807Z,12.48
2018-02-23T10:04:16.191Z,12.75
2018-02-23T10:06:42.548Z,12.00
2018-02-23T10:09:08.870Z,15.02
2018-02-23T10:11:35.198Z,14.32
2018-02-23T10:14:01.609Z,13.10
2018-02-23T10:16:28.695Z,15.05
2018-02-23T10:18:55.105Z,13.70
2018-02-23T10:21:21.493Z,14.13
2018-02-23T10:23:47.860Z,13.90
2018-02-23T10:26:14.987Z,14.90
2018-02-23T10:28:41.425Z,15.50
2018-02-23T10:31:08.529Z,15.50
2018-02-23T10:33:34.843Z,9.40
2018-02-23T10:36:01.987Z,10.37
2018-02-23T10:38:29.296Z,12.02
2018-02-23T10:40:55.635Z,14.07
2018-02-23T10:43:22.004Z,9.60
2018-02-23T10:45:48.364Z,12.80
2018-02-23T10:48:14.757Z,13.45
2018-02-23T12:12:37.491Z,18.50
2018-02-23T12:15:03.956Z,18.95
2018-02-23T12:17:31.031Z,17.17
2018-02-23T12:19:57.410Z,17.40
2018-02-23T12:22:23.772Z,16.43
2018-02-23T12:24:50.086Z,12.73
2018-02-23T12:27:16.471Z,13.83
2018-02-23T12:29:42.848Z,16.60
2018-02-23T12:32:09.947Z,14.30
2018-02-23T12:34:36.325Z,17.63
2018-02-23T12:37:02.653Z,16.02
2018-02-23T12:39:28.971Z,18.93
2018-02-23T12:41:55.372Z,16.12
2018-02-23T12:44:21.809Z,16.27
2018-02-23T12:46:49.291Z,15.63
2018-02-23T12:49:16.645Z,17.70
2018-02-23T12:51:43.824Z,20.02
2018-02-23T12:54:10.234Z,17.20
2018-02-23T12:56:36.564Z,17.60
2018-02-23T12:59:03.000Z,19.83
2018-02-23T13:01:29.377Z,17.30
2018-02-23T13:03:55.723Z,21.40
2018-02-23T13:06:22.045Z,18.80
2018-02-23T13:08:48.345Z,24.03
2018-02-23T13:11:14.761Z,17.33
2018-02-23T13:13:41.134Z,19.87
2018-02-23T13:16:07.616Z,23.67
2018-02-23T13:18:33.987Z,20.00
2018-02-23T13:21:00.366Z,23.37
2018-02-23T13:23:26.770Z,19.60
2018-02-23T13:25:53.132Z,21.30
2018-02-23T13:28:25.600Z,21.73
2018-02-23T13:30:51.974Z,20.13
2018-02-23T13:33:19.146Z,21.63
2018-02-23T13:35:45.505Z,28.23
2018-02-23T13:38:11.788Z,21.40
2018-02-23T13:40:38.867Z,23.13
2018-02-23T13:43:05.093Z,28.90
2018-02-23T13:45:32.137Z,26.03
2018-02-23T13:47:58.503Z,20.80
2018-02-23T13:50:24.864Z,23.53
2018-02-23T13:52:51.183Z,24.30
2018-02-23T13:55:18.276Z,23.47
2018-02-23T13:57:44.568Z,24.50
2018-02-23T14:00:10.942Z,19.70
2018-02-23T14:02:38.061Z,20.53
2018-02-23T14:05:04.586Z,23.40
2018-02-23T14:07:31.992Z,20.03
2018-02-23T14:09:58.512Z,22.70
2018-02-23T14:12:24.864Z,17.10
2018-02-23T14:14:51.246Z,15.93
2018-02-23T14:17:18.376Z,18.27
2018-02-23T14:19:44.683Z,17.60
2018-02-23T14:22:10.989Z,23.50
2018-02-23T14:24:37.388Z,19.17
2018-02-23T14:27:03.672Z,20.30
2018-02-23T14:29:30.356Z,18.40
2018-02-23T14:31:56.724Z,19.40
2018-02-23T14:34:23.003Z,18.27
2018-02-23T14:36:50.121Z,16.53
2018-02-23T14:39:16.436Z,17.20
2018-02-23T14:41:43.608Z,15.50
2018-02-23T14:44:10.659Z,18.53
2018-02-23T14:46:37.048Z,16.40
2018-02-23T14:49:16.412Z,17.50
2018-02-23T14:51:42.693Z,15.23
2018-02-23T14:54:09.092Z,17.70
2018-02-23T14:56:35.438Z,14.20
2018-02-23T14:59:02.571Z,14.43
2018-02-23T15:01:29.555Z,14.77
2018-02-23T15:03:55.896Z,16.53
2018-02-23T15:06:22.215Z,15.13
2018-02-23T15:08:49.260Z,16.00
2018-02-23T15:11:15.611Z,13.93
2018-02-23T15:13:42.808Z,16.20
2018-02-23T15:16:09.140Z,14.80
2018-02-23T15:18:35.474Z,16.10
2018-02-23T15:21:02.563Z,16.70
2018-02-23T15:23:28.787Z,13.50
2018-02-23T15:25:55.919Z,12.90
2018-02-23T15:28:22.153Z,16.20
2018-02-23T15:31:00.647Z,13.20
2018-02-23T15:33:27.237Z,14.73
2018-02-23T15:35:53.505Z,14.80
2018-02-23T15:38:19.868Z,13.40
2018-02-23T15:40:47.216Z,12.93
2018-02-23T15:43:14.263Z,14.90
2018-02-23T15:45:40.658Z,17.50
2018-02-23T15:48:13.159Z,16.17
2018-02-23T15:50:45.668Z,18.00
2018-02-23T15:53:12.000Z,16.40
2018-02-23T15:55:38.348Z,15.90
2018-02-23T15:58:10.695Z,18.03
2018-02-23T16:00:38.713Z,19.13
2018-02-23T16:03:08.311Z,17.67
2018-02-23T16:05:35.377Z,17.83
2018-02-23T16:08:02.019Z,13.40
2018-02-23T16:10:28.356Z,15.23
2018-02-23T16:12:54.695Z,12.70
2018-02-23T16:15:23.197Z,16.97
2018-02-23T16:17:50.242Z,15.23
2018-02-23T16:20:20.504Z,17.50
2018-02-23T16:22:47.516Z,16.67
2018-02-23T16:25:13.811Z,16.17
2018-02-23T16:27:40.054Z,14.30
2018-02-23T16:30:06.468Z,16.10
2018-02-23T16:32:32.820Z,19.17
2018-02-23T16:34:59.083Z,21.33
2018-02-23T16:37:25.341Z,14.85
2018-02-23T16:39:51.603Z,16.17
2018-02-23T16:42:17.846Z,13.90
2018-02-23T16:44:45.069Z,17.80
2018-02-23T16:47:12.110Z,17.13
2018-02-23T16:49:38.618Z,14.00
2018-02-23T16:52:05.143Z,16.97
2018-02-23T16:54:31.423Z,15.80
2018-02-23T16:56:58.429Z,14.93
2018-02-23T16:59:25.580Z,17.02
2018-02-23T17:01:52.563Z,16.85
2018-02-23T17:04:18.821Z,18.02
2018-02-23T17:06:47.537Z,17.92
2018-02-23T17:09:13.980Z,18.87
2018-02-23T17:11:43.952Z,24.10
2018-02-23T17:14:12.570Z,15.60
2018-02-23T17:16:39.095Z,18.12
2018-02-23T17:19:05.491Z,29.30
2018-02-23T17:21:33.489Z,32.50
2018-02-23T17:24:00.584Z,31.70
2018-02-23T17:26:26.959Z,32.83
2018-02-23T17:28:55.591Z,25.60
2018-02-23T17:31:23.701Z,29.98
2018-02-23T17:33:50.020Z,17.55
2018-02-23T17:36:16.560Z,16.87
2018-02-23T17:38:42.928Z,17.58
2018-02-23T17:41:10.008Z,16.37
2018-02-23T17:43:36.480Z,18.65
2018-02-23T17:46:02.948Z,19.08
2018-02-23T17:48:29.297Z,14.57
2018-02-23T17:50:55.968Z,17.80
2018-02-23T17:53:22.314Z,19.62
2018-02-23T17:55:48.636Z,17.90
2018-02-23T17:58:16.340Z,22.73
2018-02-23T18:00:42.651Z,13.90
2018-02-23T18:03:09.030Z,15.20
2018-02-23T18:05:35.556Z,15.75
2018-02-23T18:08:01.925Z,17.92
2018-02-23T18:10:28.263Z,14.45
2018-02-23T18:12:54.821Z,15.00
2018-02-23T18:15:21.226Z,24.35
2018-02-23T18:17:48.335Z,19.73
2018-02-23T18:20:15.116Z,19.87
2018-02-23T18:22:42.817Z,20.10
2018-02-23T18:25:09.977Z,14.00
2018-02-23T18:27:36.666Z,17.95
2018-02-23T18:30:04.323Z,16.50
2018-02-23T18:32:31.557Z,19.73
2018-02-23T18:34:58.289Z,25.48
2018-02-23T18:37:24.875Z,19.15
2018-02-23T18:39:52.168Z,20.17
2018-02-23T18:42:19.246Z,28.55
2018-02-23T18:44:45.684Z,25.23
2018-02-23T18:47:12.285Z,20.92
2018-02-23T18:49:39.497Z,19.35
2018-02-23T18:52:06.389Z,16.67
2018-02-23T18:54:33.196Z,16.48
2018-02-23T18:57:00.319Z,15.57
2018-02-23T18:59:27.497Z,17.85
2018-02-23T19:01:54.339Z,17.40
2018-02-23T19:04:21.113Z,15.77
2018-02-23T19:06:47.944Z,17.45
2018-02-23T19:09:14.603Z,21.52
2018-02-23T19:11:41.549Z,17.65
2018-02-23T19:14:08.298Z,17.95
2018-02-23T19:16:34.924Z,29.30
2018-02-23T19:19:01.660Z,19.67
2018-02-23T19:21:28.189Z,14.27
2018-02-23T19:23:54.749Z,19.33
2018-02-23T19:26:21.481Z,13.93
2018-02-23T19:28:47.902Z,19.70
2018-02-23T19:31:14.306Z,17.05
2018-02-23T19:33:42.035Z,15.40
2018-02-23T19:36:08.487Z,18.25
2018-02-23T19:38:34.898Z,14.40
2018-02-23T19:41:01.933Z,11.93
2018-02-23T19:43:29.045Z,14.77
2018-02-23T19:45:55.489Z,17.33
2018-02-23T19:48:22.076Z,16.42
2018-02-23T19:50:49.475Z,17.52
2018-02-23T19:53:16.649Z,13.60
2018-02-23T19:55:44.059Z,16.95
2018-02-23T19:58:10.446Z,17.80
2018-02-23T20:00:36.816Z,19.20
2018-02-23T20:03:03.580Z,19.27
2018-02-23T20:05:30.057Z,18.90
2018-02-23T20:07:56.640Z,17.87
2018-02-23T20:10:24.119Z,18.85
2018-02-23T20:12:50.476Z,19.85
2018-02-23T20:15:17.730Z,15.32
2018-02-23T20:17:46.130Z,16.42
2018-02-23T20:20:13.453Z,17.52
2018-02-23T20:22:40.001Z,17.33
2018-02-23T20:25:06.384Z,17.60
2018-02-23T20:27:32.880Z,18.33
2018-02-23T20:29:59.300Z,15.07
2018-02-23T20:32:25.778Z,14.57
2018-02-23T20:34:52.173Z,19.15
2018-02-23T20:37:19.385Z,15.23
2018-02-23T20:39:45.819Z,15.63
2018-02-23T20:42:12.294Z,20.08
2018-02-23T20:44:38.713Z,19.25
2018-02-23T20:47:05.213Z,14.90
2018-02-23T20:49:31.726Z,15.73
2018-02-23T20:51:58.191Z,16.20
2018-02-23T20:54:24.583Z,18.05
2018-02-23T20:56:51.696Z,19.75
2018-02-23T20:59:18.116Z,16.83
2018-02-23T21:01:44.550Z,17.17
2018-02-23T21:04:11.006Z,22.35
2018-02-23T21:06:37.428Z,17.87
2018-02-23T21:09:04.664Z,15.18
2018-02-23T21:11:31.472Z,17.05
2018-02-23T21:13:57.943Z,15.10
2018-02-23T21:16:24.341Z,14.05
2018-02-23T21:18:50.856Z,16.85
2018-02-23T21:21:17.229Z,18.52
2018-02-23T21:23:44.431Z,17.67
2018-02-23T21:26:10.924Z,14.57
2018-02-23T21:28:38.132Z,13.55
2018-02-23T21:31:05.326Z,17.62
2018-02-23T21:33:31.844Z,14.90
2018-02-23T21:35:59.022Z,15.63
2018-02-23T21:38:25.456Z,17.70
2018-02-23T21:40:51.950Z,16.90
2018-02-23T21:43:18.361Z,18.55
2018-02-23T21:45:45.531Z,16.92
2018-02-23T21:48:11.944Z,17.73
2018-02-23T21:50:38.451Z,14.77
2018-02-23T21:53:04.861Z,20.92
2018-02-23T21:55:32.053Z,15.43
2018-02-23T21:57:58.514Z,15.90
2018-02-23T22:00:24.933Z,15.68
2018-02-23T22:02:51.407Z,16.87
2018-02-23T22:05:18.664Z,15.82
2018-02-23T22:07:45.107Z,13.05
2018-02-23T22:10:11.499Z,16.40
2018-02-23T22:12:38.737Z,17.10
2018-02-23T22:15:06.180Z,16.60
2018-02-23T22:17:32.868Z,15.15
2018-02-23T22:19:59.240Z,14.35
2018-02-23T22:22:26.488Z,14.23
2018-02-23T22:24:52.865Z,17.10
2018-02-23T22:27:20.330Z,20.15
2018-02-23T22:29:46.844Z,17.05
2018-02-23T22:32:13.272Z,16.08
2018-02-23T22:34:39.707Z,17.08
2018-02-23T22:37:06.141Z,13.90
2018-02-23T22:39:32.652Z,16.92
2018-02-23T22:41:59.108Z,18.25
2018-02-23T22:44:25.603Z,22.02
2018-02-23T22:46:52.043Z,22.00
2018-02-23T22:49:18.497Z,15.48
2018-02-23T22:51:44.931Z,18.15
2018-02-23T22:54:11.348Z,17.17
2018-02-23T22:56:37.836Z,17.25
2018-02-23T22:59:04.274Z,17.48
2018-02-23T23:01:30.700Z,17.80
2018-02-23T23:03:57.821Z,14.13
2018-02-23T23:06:24.256Z,17.00
2018-02-23T23:08:50.674Z,20.02
2018-02-23T23:11:17.824Z,17.12
2018-02-23T23:13:44.256Z,13.57
2018-02-23T23:16:10.695Z,17.10
2018-02-23T23:18:37.153Z,18.33
2018-02-23T23:21:04.369Z,18.20
2018-02-23T23:23:30.723Z,13.65
2018-02-23T23:25:57.169Z,17.27
2018-02-23T23:28:23.524Z,14.93
2018-02-23T23:30:50.005Z,15.30
2018-02-23T23:33:16.445Z,15.95
2018-02-23T23:35:42.803Z,22.33
2018-02-23T23:38:09.240Z,13.57
2018-02-23T23:40:35.754Z,17.02
2018-02-23T23:43:02.139Z,16.25
2018-02-23T23:45:29.332Z,17.30
2018-02-23T23:47:55.745Z,21.35
2018-02-23T23:50:22.232Z,15.30
2018-02-23T23:52:48.672Z,18.62
2018-02-23T23:55:15.874Z,17.23
2018-02-23T23:57:42.228Z,17.40
